Time;durP1;ratioP1;P1;durP2;ratioP2;P2;SDS_P1;SDS_P2;PMS_P1;PMS_P2;Temp;Humidity;BMP_temperature;BMP_pressure;BME280_temperature;BME280_humidity;BME280_pressure;Samples;Min_cycle;Max_cycle;Signal;HPM_P1;HPM_P2
2024/02/28 00:01:53;;;;;;;6.40;4.95;;;;;;;7.64;100.00;97545.53;1224313;75;2920257;-65
2024/02/28 00:04:25;;;;;;;8.35;5.65;;;;;;;7.43;100.00;97564.34;1223895;75;2918802;-64
2024/02/28 00:06:58;;;;;;;8.30;5.50;;;;;;;7.56;100.00;97555.25;1224940;75;2922723;-63
2024/02/28 00:09:34;;;;;;;6.95;4.70;;;;;;;7.78;100.00;97553.06;1223990;75;2922480;-65
2024/02/28 00:12:07;;;;;;;5.65;4.00;;;;;;;7.76;100.00;97552.75;1224506;75;2918603;-64
2024/02/28 00:14:39;;;;;;;6.30;4.60;;;;;;;7.67;100.00;97559.00;1224194;75;2920610;-64
2024/02/28 00:17:12;;;;;;;5.85;4.75;;;;;;;7.60;100.00;97558.53;1223996;75;2922708;-66
2024/02/28 00:19:45;;;;;;;7.25;5.20;;;;;;;7.63;100.00;97563.09;1223573;75;2925676;-65
2024/02/28 00:22:18;;;;;;;5.50;4.80;;;;;;;7.71;100.00;97558.84;1223551;75;2931624;-64
2024/02/28 00:24:53;;;;;;;5.40;4.25;;;;;;;7.71;100.00;97547.19;1224508;75;2907033;-67
2024/02/28 00:27:26;;;;;;;8.25;4.50;;;;;;;7.43;100.00;97542.56;1224286;75;2923624;-63
2024/02/28 00:29:59;;;;;;;11.45;7.90;;;;;;;7.13;100.00;97560.59;1224286;75;2923083;-63
2024/02/28 00:32:32;;;;;;;8.00;5.90;;;;;;;7.48;100.00;97543.91;1224831;75;2916105;-64
2024/02/28 00:35:05;;;;;;;6.40;5.20;;;;;;;7.59;100.00;97549.63;1222016;75;2932747;-65
2024/02/28 00:37:38;;;;;;;6.70;4.80;;;;;;;7.63;100.00;97541.31;1224327;75;2922404;-64
2024/02/28 00:40:15;;;;;;;5.00;3.80;;;;;;;7.61;100.00;97549.19;1224798;75;2918520;-65
2024/02/28 00:42:48;;;;;;;5.80;4.30;;;;;;;7.47;100.00;97545.13;1224599;75;2921489;-64
2024/02/28 00:45:21;;;;;;;7.70;4.40;;;;;;;7.32;100.00;97550.44;1224432;75;2924873;-63
2024/02/28 00:47:54;;;;;;;5.80;4.35;;;;;;;7.31;100.00;97559.84;1224907;75;2919699;-63
2024/02/28 00:50:27;;;;;;;6.00;4.80;;;;;;;7.22;100.00;97568.75;1224490;75;2924717;-64
2024/02/28 00:53:00;;;;;;;5.45;4.30;;;;;;;7.22;100.00;97563.31;1224447;75;2918846;-64
2024/02/28 00:55:35;;;;;;;5.20;4.10;;;;;;;7.18;100.00;97567.41;1224966;75;2921726;-64
2024/02/28 00:58:08;;;;;;;4.50;3.50;;;;;;;7.25;100.00;97575.25;1224600;75;2921216;-66
2024/02/28 01:00:41;;;;;;;5.70;3.90;;;;;;;7.17;100.00;97574.06;1223869;75;2926334;-65
2024/02/28 01:03:15;;;;;;;5.00;3.65;;;;;;;7.20;100.00;97584.03;1224647;75;2913968;-64
2024/02/28 01:05:48;;;;;;;5.40;3.10;;;;;;;7.24;100.00;97581.91;1224192;75;2921547;-64
2024/02/28 01:08:21;;;;;;;4.30;3.10;;;;;;;7.13;100.00;97585.09;1224634;75;2922940;-65
2024/02/28 01:10:57;;;;;;;4.75;3.10;;;;;;;7.18;100.00;97587.19;1224538;75;2919672;-64
2024/02/28 01:13:30;;;;;;;2.95;2.30;;;;;;;7.13;100.00;97584.34;1223695;75;2936600;-65
2024/02/28 01:16:03;;;;;;;3.25;2.55;;;;;;;7.13;100.00;97579.66;1225163;75;2928781;-65
2024/02/28 01:18:36;;;;;;;3.65;2.55;;;;;;;7.05;100.00;97586.63;1223929;75;2918072;-64
2024/02/28 01:21:09;;;;;;;3.20;2.30;;;;;;;7.07;100.00;97591.59;1224057;75;2919745;-63
2024/02/28 01:23:41;;;;;;;3.05;2.20;;;;;;;7.01;100.00;97586.75;1196527;75;5121743;-64
2024/02/28 01:26:20;;;;;;;3.10;2.40;;;;;;;6.98;100.00;97589.63;1225186;75;2921041;-64
2024/02/28 01:28:53;;;;;;;4.10;2.70;;;;;;;6.93;100.00;97588.25;1224128;75;2924233;-64
2024/02/28 01:31:25;;;;;;;3.40;2.45;;;;;;;6.87;100.00;97592.78;1224888;75;2919026;-63
2024/02/28 01:33:58;;;;;;;2.55;2.20;;;;;;;6.72;100.00;97592.63;1224072;75;2928625;-64
2024/02/28 01:36:31;;;;;;;3.35;2.30;;;;;;;6.77;100.00;97589.28;1224340;75;2924722;-64
2024/02/28 01:39:04;;;;;;;3.25;2.60;;;;;;;6.76;100.00;97590.50;1224890;75;2915415;-64
2024/02/28 01:41:39;;;;;;;3.05;2.60;;;;;;;6.74;100.00;97592.19;1223640;75;2925595;-64
2024/02/28 01:44:12;;;;;;;2.50;2.00;;;;;;;6.76;100.00;97579.63;1223966;75;2912740;-63
2024/02/28 01:46:45;;;;;;;3.85;2.25;;;;;;;6.74;100.00;97590.19;1224879;75;2918369;-64
2024/02/28 01:49:19;;;;;;;3.05;2.75;;;;;;;6.63;100.00;97579.00;1223826;75;2927010;-64
2024/02/28 01:51:53;;;;;;;3.85;2.50;;;;;;;6.59;100.00;97584.59;1224040;75;2919700;-64
2024/02/28 01:54:26;;;;;;;3.70;2.85;;;;;;;6.59;100.00;97581.88;1224328;75;2920552;-65
2024/02/28 01:57:02;;;;;;;3.45;2.50;;;;;;;6.43;100.00;97587.56;1224212;75;2925673;-62
2024/02/28 01:59:36;;;;;;;3.60;2.80;;;;;;;6.34;100.00;97582.09;1224366;75;2914632;-63
2024/02/28 02:02:09;;;;;;;6.30;3.00;;;;;;;6.19;100.00;97579.94;1224798;75;2920975;-64
2024/02/28 02:04:42;;;;;;;4.00;3.20;;;;;;;6.22;100.00;97574.81;1223282;75;2925601;-65
2024/02/28 02:07:15;;;;;;;4.10;3.20;;;;;;;6.27;100.00;97583.13;1224237;75;2924895;-64
2024/02/28 02:09:48;;;;;;;4.15;3.10;;;;;;;6.23;100.00;97584.47;1224063;75;2917146;-64
2024/02/28 02:12:23;;;;;;;3.70;2.70;;;;;;;6.11;100.00;97586.88;1223560;75;2948372;-63
2024/02/28 02:14:56;;;;;;;3.60;2.90;;;;;;;6.26;100.00;97589.78;1223553;75;2920465;-65
2024/02/28 02:17:29;;;;;;;3.85;2.80;;;;;;;6.26;100.00;97587.06;1223887;75;2923623;-65
2024/02/28 02:20:02;;;;;;;4.05;3.30;;;;;;;5.95;100.00;97585.13;1223859;75;2933154;-64
2024/02/28 02:22:41;;;;;;;4.95;3.60;;;;;;;6.15;100.00;97589.44;1224142;75;2916204;-64
2024/02/28 02:25:14;;;;;;;3.65;2.80;;;;;;;6.17;100.00;97584.31;1224557;75;2917451;-65
2024/02/28 02:27:47;;;;;;;5.60;3.55;;;;;;;6.01;100.00;97588.00;1223756;75;2922128;-64
2024/02/28 02:30:20;;;;;;;4.75;3.30;;;;;;;6.04;100.00;97586.34;1224692;75;2916318;-63
2024/02/28 02:32:53;;;;;;;3.20;2.80;;;;;;;5.92;100.00;97585.25;1224268;75;2928036;-65
2024/02/28 02:35:26;;;;;;;3.40;2.80;;;;;;;5.84;100.00;97584.72;1223588;75;2923494;-65
2024/02/28 02:38:01;;;;;;;3.85;2.65;;;;;;;5.95;100.00;97592.53;1223930;75;2929969;-66
2024/02/28 02:40:34;;;;;;;4.25;2.70;;;;;;;5.96;100.00;97589.38;1224706;75;2916146;-65
2024/02/28 02:43:07;;;;;;;3.85;2.75;;;;;;;5.95;100.00;97573.50;1224734;75;2921110;-62
2024/02/28 02:45:40;;;;;;;3.55;2.60;;;;;;;5.87;100.00;97581.16;1223772;75;2919641;-63
2024/02/28 02:48:13;;;;;;;3.00;2.30;;;;;;;5.80;100.00;97577.91;1223335;75;2921513;-65
2024/02/28 02:50:46;;;;;;;3.90;2.90;;;;;;;5.82;100.00;97576.28;1222982;75;2924029;-64
2024/02/28 02:53:21;;;;;;;4.50;2.85;;;;;;;5.71;100.00;97584.81;1222540;75;2925459;-63
2024/02/28 02:55:54;;;;;;;4.25;3.15;;;;;;;5.48;100.00;97582.56;1224000;75;2924268;-64
2024/02/28 02:58:27;;;;;;;3.80;2.85;;;;;;;5.62;100.00;97584.00;1224193;75;2919684;-64
2024/02/28 03:01:00;;;;;;;5.45;4.55;;;;;;;5.45;100.00;97576.06;1223116;75;2924828;-63
2024/02/28 03:03:33;;;;;;;4.95;3.90;;;;;;;5.59;100.00;97582.19;1223582;75;2927999;-64
2024/02/28 03:06:07;;;;;;;5.85;3.75;;;;;;;5.66;100.00;97582.69;1223575;75;2934252;-65
2024/02/28 03:08:43;;;;;;;5.30;3.90;;;;;;;5.49;100.00;97578.66;1224623;75;2917531;-65
2024/02/28 03:11:16;;;;;;;5.70;3.90;;;;;;;5.47;100.00;97584.53;1224933;75;2919535;-64
2024/02/28 03:13:48;;;;;;;4.00;3.30;;;;;;;5.46;100.00;97588.47;1224171;75;2916235;-64
2024/02/28 03:16:22;;;;;;;4.50;3.65;;;;;;;5.36;100.00;97597.72;1224067;75;2921852;-64
2024/02/28 03:18:55;;;;;;;5.45;4.00;;;;;;;5.29;100.00;97595.25;1224826;75;2917907;-65
2024/02/28 03:21:28;;;;;;;5.95;4.90;;;;;;;5.26;100.00;97598.84;1223710;75;2919940;-64
2024/02/28 03:24:03;;;;;;;5.80;4.80;;;;;;;5.23;100.00;97605.94;1223633;75;2920892;-65
2024/02/28 03:26:36;;;;;;;5.10;4.25;;;;;;;5.31;100.00;97609.91;1222887;75;2915503;-65
2024/02/28 03:29:09;;;;;;;5.30;3.95;;;;;;;5.24;100.00;97603.97;1225096;75;2853277;-67
2024/02/28 03:31:42;;;;;;;5.60;4.25;;;;;;;5.40;100.00;97609.22;1224273;75;2921394;-65
2024/02/28 03:34:15;;;;;;;5.85;4.25;;;;;;;5.23;100.00;97610.59;1225032;75;2919624;-64
2024/02/28 03:36:47;;;;;;;6.05;4.70;;;;;;;5.19;100.00;97605.28;1224350;75;2925338;-63
2024/02/28 03:39:23;;;;;;;5.55;4.30;;;;;;;5.32;100.00;97608.72;1224749;75;2926393;-64
2024/02/28 03:41:56;;;;;;;4.90;3.90;;;;;;;5.38;100.00;97602.72;1224377;75;2928955;-66
2024/02/28 03:44:29;;;;;;;5.50;3.75;;;;;;;5.43;100.00;97608.31;1224656;75;2920539;-63
2024/02/28 03:47:02;;;;;;;4.25;3.55;;;;;;;5.37;100.00;97601.97;1224792;75;2923095;-64
2024/02/28 03:49:34;;;;;;;4.70;3.45;;;;;;;5.35;100.00;97596.22;1223108;75;2929591;-63
2024/02/28 03:52:08;;;;;;;4.25;3.40;;;;;;;5.38;100.00;97598.03;1225083;75;2915413;-66
2024/02/28 03:54:46;;;;;;;3.85;3.20;;;;;;;5.39;100.00;97596.06;1223985;75;2926134;-64
2024/02/28 03:57:19;;;;;;;5.30;4.40;;;;;;;5.10;100.00;97592.41;1224336;75;2926224;-63
2024/02/28 03:59:52;;;;;;;5.85;4.85;;;;;;;5.13;100.00;97591.53;1224611;83;2919625;-66
2024/02/28 04:02:25;;;;;;;5.80;4.45;;;;;;;5.21;100.00;97586.59;1224280;75;2923602;-63
2024/02/28 04:04:58;;;;;;;4.90;3.80;;;;;;;5.22;100.00;97587.34;1223767;75;2928104;-63
2024/02/28 04:07:31;;;;;;;4.90;3.80;;;;;;;5.07;100.00;97587.09;1224350;75;2929726;-65
2024/02/28 04:10:07;;;;;;;5.65;4.60;;;;;;;5.05;100.00;97575.94;1223650;75;2926994;-64
2024/02/28 04:12:40;;;;;;;5.65;4.35;;;;;;;5.09;100.00;97584.72;1224237;75;2923758;-64
2024/02/28 04:15:15;;;;;;;4.85;4.00;;;;;;;5.09;100.00;97579.28;1224415;75;2923128;-66
2024/02/28 04:17:48;;;;;;;4.80;3.95;;;;;;;5.02;100.00;97593.09;1222314;75;2925233;-65
2024/02/28 04:20:20;;;;;;;6.15;4.95;;;;;;;4.82;100.00;97587.94;1222637;75;2921855;-63
2024/02/28 04:22:53;;;;;;;6.95;5.15;;;;;;;4.87;100.00;97584.69;1223894;75;2920177;-65
2024/02/28 04:25:29;;;;;;;6.15;4.50;;;;;;;4.93;100.00;97590.28;1223904;75;2920475;-66
2024/02/28 04:28:01;;;;;;;6.20;4.55;;;;;;;4.85;100.00;97598.66;1224216;75;2920538;-64
2024/02/28 04:30:35;;;;;;;6.80;5.45;;;;;;;4.78;100.00;97593.47;1223896;75;2920626;-64
2024/02/28 04:33:08;;;;;;;5.15;4.25;;;;;;;4.89;100.00;97596.59;1223602;75;2921911;-65
2024/02/28 04:35:41;;;;;;;4.30;3.60;;;;;;;5.02;100.00;97601.22;1223985;75;2925828;-65
2024/02/28 04:38:13;;;;;;;4.35;3.65;;;;;;;5.06;100.00;97607.31;1224282;75;2923557;-65
2024/02/28 04:40:49;;;;;;;6.20;5.25;;;;;;;4.79;100.00;97605.88;1224618;75;2919289;-64
2024/02/28 04:43:22;;;;;;;6.80;5.65;;;;;;;4.81;100.00;97621.69;1224438;75;2919632;-65
2024/02/28 04:45:55;;;;;;;9.15;6.95;;;;;;;4.56;100.00;97622.50;1224393;67;2924276;-64
2024/02/28 04:48:28;;;;;;;8.35;7.30;;;;;;;4.65;100.00;97622.59;1223896;75;2924425;-65
2024/02/28 04:51:00;;;;;;;7.15;5.60;;;;;;;4.83;100.00;97624.72;1223590;75;2924256;-65
2024/02/28 04:53:33;;;;;;;7.00;5.85;;;;;;;4.67;100.00;97622.91;1225034;75;2892594;-63
2024/02/28 04:56:09;;;;;;;7.80;6.25;;;;;;;4.75;100.00;97626.91;1223632;75;2931223;-65
2024/02/28 04:58:42;;;;;;;12.75;6.85;;;;;;;4.74;100.00;97632.75;1223483;75;2920960;-65
2024/02/28 05:01:15;;;;;;;7.10;6.40;;;;;;;4.89;100.00;97625.69;1223771;75;2929615;-64
2024/02/28 05:03:48;;;;;;;6.80;6.10;;;;;;;4.95;100.00;97625.88;1223795;75;2926064;-62
2024/02/28 05:06:21;;;;;;;6.80;5.65;;;;;;;5.03;100.00;97622.50;1222884;75;2929275;-64
2024/02/28 05:08:54;;;;;;;5.95;5.20;;;;;;;5.13;100.00;97624.09;1224031;75;2923993;-64
2024/02/28 05:11:29;;;;;;;5.15;4.35;;;;;;;5.22;100.00;97619.94;1222851;75;2924332;-65
2024/02/28 05:14:02;;;;;;;6.10;4.60;;;;;;;5.29;100.00;97620.47;1221100;75;2988699;-65
2024/02/28 05:16:35;;;;;;;4.35;3.95;;;;;;;5.31;100.00;97612.63;1223821;75;2918716;-64
2024/02/28 05:19:08;;;;;;;5.45;4.30;;;;;;;5.13;100.00;97612.50;1222896;75;2930107;-63
2024/02/28 05:21:45;;;;;;;5.70;4.60;;;;;;;5.06;100.00;97601.88;1222710;75;2925162;-64
2024/02/28 05:24:18;;;;;;;4.80;4.30;;;;;;;5.07;100.00;97612.28;1222664;75;2928752;-66
2024/02/28 05:26:53;;;;;;;4.75;3.70;;;;;;;5.17;100.00;97629.41;1223376;75;2928699;-63
2024/02/28 05:29:23;;;;;;;4.70;3.70;;;;;;;5.11;100.00;97618.34;1223520;75;2924063;-64
2024/02/28 05:31:56;;;;;;;4.25;3.65;;;;;;;5.19;100.00;97624.28;1222579;75;2922157;-63
2024/02/28 05:34:29;;;;;;;4.45;3.35;;;;;;;5.25;100.00;97619.06;1223592;75;2927985;-65
2024/02/28 05:37:02;;;;;;;3.60;3.10;;;;;;;5.13;100.00;97621.38;1223556;75;2929710;-66
2024/02/28 05:39:35;;;;;;;4.25;3.40;;;;;;;5.19;100.00;97626.25;1223181;75;2925744;-65
2024/02/28 05:42:11;;;;;;;3.85;2.90;;;;;;;5.17;100.00;97631.34;1222973;75;2926493;-65
2024/02/28 05:44:43;;;;;;;5.15;3.95;;;;;;;5.08;100.00;97630.09;1223318;75;2922196;-63
2024/02/28 05:47:16;;;;;;;4.30;3.70;;;;;;;5.03;100.00;97646.91;1223184;75;2920404;-62
2024/02/28 05:49:49;;;;;;;5.15;4.30;;;;;;;5.04;100.00;97658.53;1223215;75;2930968;-63
2024/02/28 05:52:22;;;;;;;4.55;3.55;;;;;;;5.21;100.00;97656.41;1223958;75;2921576;-64
2024/02/28 05:54:55;;;;;;;3.45;2.90;;;;;;;5.22;100.00;97660.63;1223589;75;2919715;-63
2024/02/28 05:57:31;;;;;;;3.65;2.95;;;;;;;5.24;100.00;97671.81;1222551;75;2924620;-64
2024/02/28 06:00:09;;;;;;;4.30;3.15;;;;;;;5.24;100.00;97679.97;1224489;75;2925829;-64
2024/02/28 06:02:42;;;;;;;7.00;5.50;;;;;;;4.84;100.00;97688.63;1224025;75;2920339;-66
2024/02/28 06:05:15;;;;;;;7.30;6.20;;;;;;;4.72;100.00;97690.16;1224031;75;2920534;-64
2024/02/28 06:07:48;;;;;;;7.10;6.25;;;;;;;4.82;100.00;97686.34;1222594;75;2925717;-65
2024/02/28 06:10:21;;;;;;;6.90;5.65;;;;;;;5.06;100.00;97696.84;1223187;75;2920746;-66
2024/02/28 06:12:56;;;;;;;5.15;4.40;;;;;;;5.13;100.00;97702.03;1223726;75;2924636;-63
2024/02/28 06:15:29;;;;;;;6.00;5.40;;;;;;;5.05;100.00;97698.00;1223568;75;2925203;-65
2024/02/28 06:18:02;;;;;;;6.55;5.05;;;;;;;5.08;100.00;97702.59;1223192;75;2923974;-64
2024/02/28 06:20:37;;;;;;;6.25;5.15;;;;;;;5.19;100.00;97708.41;1222784;75;2921249;-63
2024/02/28 06:23:09;;;;;;;7.80;6.40;;;;;;;5.05;100.00;97696.09;1223322;75;2929340;-63
2024/02/28 06:25:42;;;;;;;7.60;6.10;;;;;;;5.05;100.00;97706.16;1222856;83;2928087;-64
2024/02/28 06:28:18;;;;;;;6.20;5.40;;;;;;;5.22;100.00;97704.84;1223905;75;2930976;-63
2024/02/28 06:30:51;;;;;;;6.00;4.85;;;;;;;5.34;100.00;97698.63;1224107;75;2926276;-64
2024/02/28 06:33:24;;;;;;;6.20;4.75;;;;;;;5.34;100.00;97708.72;1224661;75;2924033;-63
2024/02/28 06:35:58;;;;;;;6.20;4.85;;;;;;;5.36;100.00;97714.44;1223350;75;2918368;-65
2024/02/28 06:38:30;;;;;;;5.75;4.90;;;;;;;5.46;100.00;97712.56;1223283;75;2922135;-62
2024/02/28 06:41:03;;;;;;;5.70;4.50;;;;;;;5.51;100.00;97718.22;1223890;75;2921874;-62
2024/02/28 06:43:40;;;;;;;5.70;4.35;;;;;;;5.66;100.00;97721.19;1223205;75;2924736;-62
2024/02/28 06:46:14;;;;;;;5.10;4.20;;;;;;;5.74;100.00;97719.75;1224116;75;2924845;-63
2024/02/28 06:48:47;;;;;;;4.90;4.20;;;;;;;5.80;100.00;97725.38;1222412;75;2925017;-64
2024/02/28 06:51:20;;;;;;;4.65;3.90;;;;;;;5.92;100.00;97730.00;1223885;75;2923503;-65
2024/02/28 06:53:56;;;;;;;8.40;6.20;;;;;;;5.44;100.00;97726.59;1224737;75;2923136;-64
2024/02/28 06:56:29;;;;;;;12.65;9.75;;;;;;;5.32;100.00;97728.16;1224208;75;2922902;-64
2024/02/28 06:59:06;;;;;;;12.00;8.90;;;;;;;5.37;100.00;97734.97;1223931;75;2920296;-63
2024/02/28 07:01:39;;;;;;;10.30;7.70;;;;;;;5.54;100.00;97741.75;1223327;75;2920488;-63
2024/02/28 07:04:12;;;;;;;7.35;6.10;;;;;;;5.95;100.00;97742.72;1222701;75;2926904;-63
2024/02/28 07:06:47;;;;;;;8.70;6.00;;;;;;;6.02;100.00;97740.97;1223285;75;2923647;-65
2024/02/28 07:09:20;;;;;;;6.10;5.05;;;;;;;6.21;100.00;97742.59;1222812;75;2926152;-63
2024/02/28 07:11:53;;;;;;;5.35;4.45;;;;;;;6.42;100.00;97748.44;1222010;75;2925753;-62
2024/02/28 07:14:28;;;;;;;4.55;3.70;;;;;;;6.45;100.00;97761.91;1210693;75;3098770;-64
2024/02/28 07:17:01;;;;;;;4.70;4.00;;;;;;;6.53;100.00;97755.00;1174168;75;4875017;-64
2024/02/28 07:19:35;;;;;;;4.90;3.70;;;;;;;6.55;100.00;97758.03;1224822;75;2926004;-65
2024/02/28 07:22:08;;;;;;;5.85;4.15;;;;;;;6.63;100.00;97752.31;1223516;75;2926210;-64
2024/02/28 07:24:41;;;;;;;6.10;4.20;;;;;;;6.77;100.00;97752.53;1223643;75;2922746;-64
2024/02/28 07:27:14;;;;;;;4.70;4.20;;;;;;;6.87;100.00;97758.78;1223740;75;2928970;-61
2024/02/28 07:29:53;;;;;;;6.45;5.05;;;;;;;7.01;100.00;97760.94;1223287;75;2926108;-62
2024/02/28 07:32:26;;;;;;;5.45;4.10;;;;;;;7.21;100.00;97759.78;1222943;75;2922017;-63
2024/02/28 07:34:58;;;;;;;5.80;4.80;;;;;;;6.94;100.00;97755.78;1223605;75;2927583;-64
2024/02/28 07:37:31;;;;;;;6.70;5.25;;;;;;;7.17;100.00;97757.22;1222703;75;2935495;-64
2024/02/28 07:40:04;;;;;;;5.05;4.30;;;;;;;7.43;100.00;97759.66;1223234;75;2924021;-62
2024/02/28 07:42:37;;;;;;;4.05;3.65;;;;;;;7.63;100.00;97762.72;1223194;75;2929690;-64
2024/02/28 07:45:13;;;;;;;6.40;5.55;;;;;;;7.42;100.00;97755.44;1223425;75;2931435;-64
2024/02/28 07:47:46;;;;;;;7.55;6.20;;;;;;;7.52;100.00;97753.50;1223408;75;2930639;-64
2024/02/28 07:50:19;;;;;;;10.25;7.50;;;;;;;7.38;100.00;97763.00;1223006;67;2932476;-63
2024/02/28 07:52:52;;;;;;;10.15;8.25;;;;;;;7.09;100.00;97763.38;1223190;75;2931983;-65
2024/02/28 07:55:24;;;;;;;10.70;8.70;;;;;;;7.03;100.00;97763.22;1223073;83;2924202;-62
2024/02/28 07:57:58;;;;;;;9.30;8.05;;;;;;;7.09;100.00;97766.84;1223562;75;2935209;-64
2024/02/28 08:00:33;;;;;;;10.35;7.90;;;;;;;7.52;100.00;97764.38;1221969;75;2946542;-63
2024/02/28 08:03:06;;;;;;;8.15;6.65;;;;;;;7.67;100.00;97768.03;1223494;75;2932304;-64
2024/02/28 08:05:40;;;;;;;9.70;7.50;;;;;;;7.82;100.00;97768.94;1222293;75;2928800;-63
2024/02/28 08:08:13;;;;;;;8.60;6.50;;;;;;;8.08;100.00;97769.41;1223128;75;2918483;-62
2024/02/28 08:10:48;;;;;;;9.40;6.95;;;;;;;8.16;100.00;97769.84;1222874;75;2916788;-63
2024/02/28 08:13:21;;;;;;;8.55;6.25;;;;;;;8.24;100.00;97773.75;1223924;75;2922474;-63
2024/02/28 08:15:57;;;;;;;6.70;4.90;;;;;;;8.95;100.00;97761.63;1224048;75;2921759;-66
2024/02/28 08:18:32;;;;;;;7.55;6.00;;;;;;;8.96;100.00;97756.91;1223156;75;2928739;-65
2024/02/28 08:21:05;;;;;;;7.80;5.10;;;;;;;9.09;100.00;97759.44;1222843;75;2922779;-65
2024/02/28 08:23:38;;;;;;;7.00;5.50;;;;;;;9.50;100.00;97759.78;1223184;75;2928302;-63
2024/02/28 08:26:11;;;;;;;8.00;5.55;;;;;;;9.87;100.00;97762.28;1222325;75;2928500;-65
2024/02/28 08:28:43;;;;;;;6.45;4.55;;;;;;;9.90;100.00;97766.81;1223354;75;2930634;-64
2024/02/28 08:31:19;;;;;;;8.90;6.80;;;;;;;9.89;100.00;97773.50;1222987;75;2924409;-64
2024/02/28 08:33:52;;;;;;;7.85;6.40;;;;;;;9.91;100.00;97768.31;1223247;75;2945150;-64
2024/02/28 08:36:25;;;;;;;8.70;5.60;;;;;;;10.67;100.00;97768.69;1223683;75;2921547;-64
2024/02/28 08:39:09;;;;;;;5.53;4.85;;;;;;;10.71;100.00;97776.72;1195608;75;10054540;-60
2024/02/28 08:41:42;;;;;;;7.00;5.20;;;;;;;10.76;100.00;97776.03;1130938;75;10316086;-65
2024/02/28 08:44:20;;;;;;;6.05;4.85;;;;;;;10.58;100.00;97777.75;1190744;75;5557981;-64
2024/02/28 08:46:55;;;;;;;;;;;;;;;10.12;100.00;97780.88;1197925;75;5036029;-65
2024/02/28 08:49:28;;;;;;;9.25;6.25;;;;;;;10.19;100.00;97790.72;1220758;75;2933504;-67
2024/02/28 08:52:10;;;;;;;10.00;6.40;;;;;;;10.08;100.00;97783.06;791573;75;13289968;-64
2024/02/28 08:54:48;;;;;;;7.30;4.80;;;;;;;10.81;100.00;97794.53;1137990;75;5876789;-67
2024/02/28 08:57:24;;;;;;;8.20;4.40;;;;;;;11.26;100.00;97781.53;1144870;75;5187504;-68
2024/02/28 09:00:03;;;;;;;5.40;4.40;;;;;;;10.69;100.00;97790.13;1047518;75;5920045;-65
2024/02/28 09:02:46;;;;;;;5.90;3.90;;;;;;;11.08;100.00;97791.47;1117533;75;5869633;-66
2024/02/28 09:05:24;;;;;;;5.20;3.90;;;;;;;11.23;100.00;97798.91;1213902;75;3017855;-64
2024/02/28 09:08:06;;;;;;;7.00;5.20;;;;;;;11.13;100.00;97803.75;1078913;75;5950682;-65
2024/02/28 09:10:47;;;;;;;6.40;5.00;;;;;;;11.39;100.00;97798.38;1151912;75;5719613;-64
2024/02/28 09:13:30;;;;;;;9.20;6.10;;;;;;;11.01;100.00;97802.81;1055954;75;9828164;-64
2024/02/28 09:16:10;;;;;;;6.75;5.30;;;;;;;11.26;100.00;97800.72;1118021;83;8872686;-65
2024/02/28 09:18:46;;;;;;;6.90;4.90;;;;;;;11.77;100.00;97795.88;1222375;75;2922815;-67
2024/02/28 09:21:19;;;;;;;6.25;4.40;;;;;;;12.16;100.00;97801.84;1222419;75;2929609;-65
2024/02/28 09:23:54;;;;;;;6.40;4.70;;;;;;;11.90;100.00;97794.31;1222852;75;2921811;-63
2024/02/28 09:26:26;;;;;;;5.70;4.20;;;;;;;11.81;100.00;97794.44;1223784;75;2924963;-65
2024/02/28 09:28:59;;;;;;;5.45;4.00;;;;;;;12.32;100.00;97790.28;1223091;75;2925366;-63
2024/02/28 09:31:32;;;;;;;5.30;3.90;;;;;;;12.68;100.00;97787.38;1222305;67;2926477;-64
2024/02/28 09:34:09;;;;;;;7.65;5.15;;;;;;;12.04;100.00;97790.00;1223924;75;2921575;-63
2024/02/28 09:36:45;;;;;;;6.70;4.40;;;;;;;12.77;100.00;97790.69;1222147;75;2924628;-64
2024/02/28 09:39:18;;;;;;;6.75;4.75;;;;;;;12.31;100.00;97794.28;1223961;75;2924599;-68
2024/02/28 09:41:52;;;;;;;5.35;4.35;;;;;;;12.65;100.00;97791.06;1222112;75;2932053;-64
2024/02/28 09:44:27;;;;;;;4.40;3.60;;;;;;;13.33;100.00;97797.88;1223561;75;2918803;-66
2024/02/28 09:46:59;;;;;;;4.95;3.60;;;;;;;13.32;96.25;97801.84;1222231;75;2925685;-65
2024/02/28 09:49:39;;;;;;;5.60;3.75;;;;;;;13.07;95.95;97801.41;1223319;75;2926150;-64
2024/02/28 09:52:12;;;;;;;4.50;3.30;;;;;;;13.72;93.12;97797.31;1221750;75;2924465;-66
2024/02/28 09:54:46;;;;;;;4.40;2.65;;;;;;;13.89;92.14;97800.13;1223783;75;2923569;-64
2024/02/28 09:57:19;;;;;;;4.85;3.65;;;;;;;13.35;93.16;97806.38;1223891;75;2924915;-64
2024/02/28 09:59:52;;;;;;;3.85;3.15;;;;;;;13.73;92.55;97804.31;1222802;75;2921149;-62
2024/02/28 10:02:26;;;;;;;5.80;4.10;;;;;;;13.24;93.77;97809.78;1222881;75;2929789;-63
2024/02/28 10:05:04;;;;;;;5.50;3.60;;;;;;;14.09;90.36;97805.44;1222667;75;2925012;-63
2024/02/28 10:07:38;;;;;;;4.50;3.40;;;;;;;13.94;90.02;97802.16;1221667;75;2924463;-66
2024/02/28 10:10:12;;;;;;;6.75;4.30;;;;;;;13.48;90.31;97811.44;1223271;75;2928498;-63
2024/02/28 10:12:45;;;;;;;5.95;5.00;;;;;;;13.35;95.11;97807.13;1222943;75;2924472;-65
2024/02/28 10:15:19;;;;;;;7.20;4.60;;;;;;;14.64;88.36;97803.34;1220402;75;2919289;-65
2024/02/28 10:17:51;;;;;;;6.35;4.25;;;;;;;14.74;86.88;97810.09;1220814;75;2925426;-63
2024/02/28 10:20:27;;;;;;;6.85;5.50;;;;;;;14.23;89.16;97804.50;1221574;75;2917822;-64
2024/02/28 10:23:00;;;;;;;9.60;6.15;;;;;;;13.87;90.69;97806.13;1223069;75;2921089;-67
2024/02/28 10:25:33;;;;;;;7.30;5.10;;;;;;;14.48;86.36;97800.03;1222655;75;2920258;-65
2024/02/28 10:28:06;;;;;;;6.75;4.35;;;;;;;14.54;84.01;97797.31;1223107;75;2921391;-66
2024/02/28 10:30:46;;;;;;;6.55;4.45;;;;;;;14.72;83.86;97801.59;1223260;75;2922697;-63
2024/02/28 10:33:19;;;;;;;6.20;4.70;;;;;;;14.73;84.16;97803.09;1223347;75;2924234;-64
2024/02/28 10:35:55;;;;;;;6.75;4.65;;;;;;;14.46;84.17;97805.31;1223151;75;2921270;-65
2024/02/28 10:38:30;;;;;;;6.00;4.35;;;;;;;14.79;82.04;97806.63;1221999;75;2924798;-66
2024/02/28 10:41:04;;;;;;;7.05;5.05;;;;;;;14.38;84.46;97793.28;1219628;75;2924798;-64
2024/02/28 10:43:37;;;;;;;7.15;5.45;;;;;;;14.84;84.36;97805.88;1222783;75;2923658;-64
2024/02/28 10:46:12;;;;;;;8.80;5.75;;;;;;;14.29;88.46;97801.75;1222722;75;2925165;-66
2024/02/28 10:48:44;;;;;;;8.55;6.50;;;;;;;13.73;89.31;97810.56;1223159;75;2922969;-66
2024/02/28 10:51:27;;;;;;;11.05;7.00;;;;;;;13.39;94.92;97809.63;1221930;75;2927448;-65
2024/02/28 10:54:12;;;;;;;8.25;6.00;;;;;;;13.77;94.63;97811.09;1222230;75;2930879;-67
2024/02/28 10:56:46;;;;;;;8.60;5.75;;;;;;;13.26;96.73;97801.78;1221663;75;2923272;-66
2024/02/28 10:59:19;;;;;;;7.30;5.95;;;;;;;13.39;98.01;97806.88;1223107;75;2932202;-66
2024/02/28 11:01:52;;;;;;;8.65;5.85;;;;;;;13.66;100.00;97811.03;1220823;75;2925458;-65
2024/02/28 11:04:25;;;;;;;9.30;6.45;;;;;;;13.39;100.00;97809.63;1220468;67;2921798;-66
2024/02/28 11:07:01;;;;;;;9.85;6.65;;;;;;;12.46;100.00;97813.41;1221728;75;2924906;-66
2024/02/28 11:09:34;;;;;;;7.75;5.75;;;;;;;13.17;100.00;97816.47;1221675;75;2934956;-66
2024/02/28 11:12:09;;;;;;;6.85;4.90;;;;;;;13.14;100.00;97811.22;1222070;75;2915545;-65
2024/02/28 11:14:42;;;;;;;9.20;6.15;;;;;;;12.47;100.00;97816.88;1194470;75;5133551;-62
2024/02/28 11:17:15;;;;;;;9.25;5.55;;;;;;;12.34;100.00;97815.28;1223372;75;2922435;-65
2024/02/28 11:19:50;;;;;;;6.60;5.30;;;;;;;12.74;100.00;97810.13;1221296;75;2938114;-66
2024/02/28 11:22:25;;;;;;;7.50;5.50;;;;;;;12.76;100.00;97811.16;1222290;75;2920132;-65
2024/02/28 11:24:59;;;;;;;12.05;7.05;;;;;;;12.64;100.00;97808.81;1222585;75;2934059;-63
2024/02/28 11:27:32;;;;;;;11.95;7.00;;;;;;;12.95;100.00;97803.31;1222133;75;2922506;-63
2024/02/28 11:30:05;;;;;;;8.80;6.10;;;;;;;13.48;100.00;97806.69;1223128;75;2923404;-64
2024/02/28 11:32:37;;;;;;;6.90;4.90;;;;;;;13.73;100.00;97805.06;1222042;75;2928982;-64
2024/02/28 11:35:11;;;;;;;6.35;5.00;;;;;;;12.74;100.00;97812.88;1221037;75;2928984;-66
2024/02/28 11:37:56;;;;;;;10.90;6.35;;;;;;;12.66;100.00;97809.81;1223157;75;2918089;-63
2024/02/28 11:40:30;;;;;;;7.85;5.45;;;;;;;12.85;100.00;97809.50;1222293;75;2926915;-65
2024/02/28 11:43:04;;;;;;;12.45;4.85;;;;;;;12.55;100.00;97801.47;1221978;75;2931048;-64
2024/02/28 11:45:44;;;;;;;6.70;4.50;;;;;;;12.39;100.00;97799.31;1222672;75;2918693;-63